sensor_id;sensor_type;location;lat;lon;timestamp;P1;durP1;ratioP1;P2;durP2;ratioP2
49175;SDS011;35012;47.200;9.748;2023-07-13T00:01:19;2.60;;;1.90;;
49175;SDS011;35012;47.200;9.748;2023-07-13T00:03:44;2.17;;;1.40;;
49175;SDS011;35012;47.200;9.748;2023-07-13T00:06:10;4.30;;;1.63;;
49175;SDS011;35012;47.200;9.748;2023-07-13T00:08:36;2.50;;;1.60;;
49175;SDS011;35012;47.200;9.748;2023-07-13T00:11:02;4.27;;;1.70;;
49175;SDS011;35012;47.200;9.748;2023-07-13T00:13:28;2.50;;;1.60;;
49175;SDS011;35012;47.200;9.748;2023-07-13T00:15:57;3.87;;;1.70;;
49175;SDS011;35012;47.200;9.748;2023-07-13T00:18:23;1.90;;;1.70;;
49175;SDS011;35012;47.200;9.748;2023-07-13T00:20:49;3.10;;;2.00;;
49175;SDS011;35012;47.200;9.748;2023-07-13T00:23:15;4.37;;;2.00;;
49175;SDS011;35012;47.200;9.748;2023-07-13T00:25:42;2.33;;;1.77;;
49175;SDS011;35012;47.200;9.748;2023-07-13T00:28:08;3.23;;;1.97;;
49175;SDS011;35012;47.200;9.748;2023-07-13T00:30:33;4.70;;;2.17;;
49175;SDS011;35012;47.200;9.748;2023-07-13T00:32:59;2.20;;;2.00;;
49175;SDS011;35012;47.200;9.748;2023-07-13T00:35:26;2.97;;;1.80;;
49175;SDS011;35012;47.200;9.748;2023-07-13T00:37:52;2.83;;;2.30;;
49175;SDS011;35012;47.200;9.748;2023-07-13T00:40:18;3.17;;;1.80;;
49175;SDS011;35012;47.200;9.748;2023-07-13T00:42:43;3.03;;;1.80;;
49175;SDS011;35012;47.200;9.748;2023-07-13T00:47:38;2.53;;;2.00;;
49175;SDS011;35012;47.200;9.748;2023-07-13T00:50:05;2.10;;;1.80;;
49175;SDS011;35012;47.200;9.748;2023-07-13T00:52:35;3.10;;;2.00;;
49175;SDS011;35012;47.200;9.748;2023-07-13T00:55:02;4.33;;;2.00;;
49175;SDS011;35012;47.200;9.748;2023-07-13T00:57:28;2.37;;;1.90;;
49175;SDS011;35012;47.200;9.748;2023-07-13T00:59:54;4.60;;;1.90;;
49175;SDS011;35012;47.200;9.748;2023-07-13T01:02:24;2.90;;;1.93;;
49175;SDS011;35012;47.200;9.748;2023-07-13T01:04:50;3.80;;;2.20;;
49175;SDS011;35012;47.200;9.748;2023-07-13T01:07:16;3.87;;;1.80;;
49175;SDS011;35012;47.200;9.748;2023-07-13T01:09:44;1.87;;;1.63;;
49175;SDS011;35012;47.200;9.748;2023-07-13T01:12:10;2.97;;;2.00;;
49175;SDS011;35012;47.200;9.748;2023-07-13T01:14:36;3.10;;;2.00;;
49175;SDS011;35012;47.200;9.748;2023-07-13T01:17:01;4.73;;;2.27;;
49175;SDS011;35012;47.200;9.748;2023-07-13T01:19:44;3.47;;;1.97;;
49175;SDS011;35012;47.200;9.748;2023-07-13T01:22:11;2.33;;;2.13;;
49175;SDS011;35012;47.200;9.748;2023-07-13T01:24:39;2.80;;;2.20;;
49175;SDS011;35012;47.200;9.748;2023-07-13T01:27:08;3.77;;;2.03;;
49175;SDS011;35012;47.200;9.748;2023-07-13T01:29:35;3.43;;;2.20;;
49175;SDS011;35012;47.200;9.748;2023-07-13T01:32:07;8.20;;;2.50;;
49175;SDS011;35012;47.200;9.748;2023-07-13T01:34:37;4.43;;;2.20;;
49175;SDS011;35012;47.200;9.748;2023-07-13T01:37:03;2.73;;;2.17;;
49175;SDS011;35012;47.200;9.748;2023-07-13T01:39:30;2.53;;;1.90;;
49175;SDS011;35012;47.200;9.748;2023-07-13T01:41:56;4.23;;;2.27;;
49175;SDS011;35012;47.200;9.748;2023-07-13T01:44:22;6.13;;;2.43;;
49175;SDS011;35012;47.200;9.748;2023-07-13T01:46:48;3.83;;;2.20;;
49175;SDS011;35012;47.200;9.748;2023-07-13T01:49:13;3.03;;;2.20;;
49175;SDS011;35012;47.200;9.748;2023-07-13T01:51:39;3.83;;;2.27;;
49175;SDS011;35012;47.200;9.748;2023-07-13T01:54:04;3.77;;;2.30;;
49175;SDS011;35012;47.200;9.748;2023-07-13T01:56:30;2.93;;;2.27;;
49175;SDS011;35012;47.200;9.748;2023-07-13T01:58:56;2.20;;;1.80;;
49175;SDS011;35012;47.200;9.748;2023-07-13T02:01:22;2.13;;;1.80;;
49175;SDS011;35012;47.200;9.748;2023-07-13T02:03:47;2.00;;;1.80;;
49175;SDS011;35012;47.200;9.748;2023-07-13T02:06:13;4.03;;;2.20;;
49175;SDS011;35012;47.200;9.748;2023-07-13T02:08:39;3.03;;;2.20;;
49175;SDS011;35012;47.200;9.748;2023-07-13T02:11:05;3.23;;;2.10;;
49175;SDS011;35012;47.200;9.748;2023-07-13T02:13:31;4.40;;;2.63;;
49175;SDS011;35012;47.200;9.748;2023-07-13T02:15:56;3.10;;;2.00;;
49175;SDS011;35012;47.200;9.748;2023-07-13T02:18:22;2.77;;;2.13;;
49175;SDS011;35012;47.200;9.748;2023-07-13T02:20:48;4.13;;;2.23;;
49175;SDS011;35012;47.200;9.748;2023-07-13T02:23:13;2.57;;;1.90;;
49175;SDS011;35012;47.200;9.748;2023-07-13T02:25:39;2.87;;;1.60;;
49175;SDS011;35012;47.200;9.748;2023-07-13T02:28:04;1.93;;;1.80;;
49175;SDS011;35012;47.200;9.748;2023-07-13T02:30:30;5.30;;;2.17;;
49175;SDS011;35012;47.200;9.748;2023-07-13T02:32:56;2.03;;;1.83;;
49175;SDS011;35012;47.200;9.748;2023-07-13T02:35:22;3.67;;;2.00;;
49175;SDS011;35012;47.200;9.748;2023-07-13T02:37:48;4.83;;;2.17;;
49175;SDS011;35012;47.200;9.748;2023-07-13T02:40:13;4.87;;;2.10;;
49175;SDS011;35012;47.200;9.748;2023-07-13T02:42:39;3.73;;;2.10;;
49175;SDS011;35012;47.200;9.748;2023-07-13T02:45:05;3.13;;;2.00;;
49175;SDS011;35012;47.200;9.748;2023-07-13T02:47:32;2.13;;;1.87;;
49175;SDS011;35012;47.200;9.748;2023-07-13T02:49:58;4.40;;;2.00;;
49175;SDS011;35012;47.200;9.748;2023-07-13T02:52:24;3.37;;;2.00;;
49175;SDS011;35012;47.200;9.748;2023-07-13T02:54:50;3.00;;;2.07;;
49175;SDS011;35012;47.200;9.748;2023-07-13T02:57:16;2.77;;;2.37;;
49175;SDS011;35012;47.200;9.748;2023-07-13T02:59:41;3.67;;;2.23;;
49175;SDS011;35012;47.200;9.748;2023-07-13T03:02:07;2.20;;;2.00;;
49175;SDS011;35012;47.200;9.748;2023-07-13T03:04:34;3.33;;;2.17;;
49175;SDS011;35012;47.200;9.748;2023-07-13T03:07:03;2.60;;;2.00;;
49175;SDS011;35012;47.200;9.748;2023-07-13T03:09:29;2.53;;;2.00;;
49175;SDS011;35012;47.200;9.748;2023-07-13T03:11:56;3.27;;;1.93;;
49175;SDS011;35012;47.200;9.748;2023-07-13T03:14:22;3.23;;;2.17;;
49175;SDS011;35012;47.200;9.748;2023-07-13T03:16:48;2.73;;;1.87;;
49175;SDS011;35012;47.200;9.748;2023-07-13T03:19:14;4.67;;;2.00;;
49175;SDS011;35012;47.200;9.748;2023-07-13T03:21:39;3.93;;;2.30;;
49175;SDS011;35012;47.200;9.748;2023-07-13T03:24:05;4.10;;;2.33;;
49175;SDS011;35012;47.200;9.748;2023-07-13T03:26:31;3.40;;;2.20;;
49175;SDS011;35012;47.200;9.748;2023-07-13T03:28:57;2.87;;;2.30;;
49175;SDS011;35012;47.200;9.748;2023-07-13T03:31:25;3.27;;;2.20;;
49175;SDS011;35012;47.200;9.748;2023-07-13T03:33:53;2.60;;;2.17;;
49175;SDS011;35012;47.200;9.748;2023-07-13T03:36:20;3.20;;;2.50;;
49175;SDS011;35012;47.200;9.748;2023-07-13T03:38:49;4.50;;;2.40;;
49175;SDS011;35012;47.200;9.748;2023-07-13T03:41:16;4.20;;;2.20;;
49175;SDS011;35012;47.200;9.748;2023-07-13T03:43:42;2.20;;;2.00;;
49175;SDS011;35012;47.200;9.748;2023-07-13T03:46:08;5.23;;;2.00;;
49175;SDS011;35012;47.200;9.748;2023-07-13T03:48:34;2.07;;;1.70;;
49175;SDS011;35012;47.200;9.748;2023-07-13T03:51:00;5.20;;;1.90;;
49175;SDS011;35012;47.200;9.748;2023-07-13T03:53:26;3.57;;;2.07;;
49175;SDS011;35012;47.200;9.748;2023-07-13T03:55:51;3.13;;;2.10;;
49175;SDS011;35012;47.200;9.748;2023-07-13T03:58:33;2.77;;;2.43;;
49175;SDS011;35012;47.200;9.748;2023-07-13T04:01:00;3.20;;;2.10;;
49175;SDS011;35012;47.200;9.748;2023-07-13T04:03:27;4.13;;;2.40;;
49175;SDS011;35012;47.200;9.748;2023-07-13T04:05:55;2.10;;;1.97;;
49175;SDS011;35012;47.200;9.748;2023-07-13T04:08:25;4.17;;;1.97;;
49175;SDS011;35012;47.200;9.748;2023-07-13T04:10:52;2.70;;;1.97;;
49175;SDS011;35012;47.200;9.748;2023-07-13T04:13:17;5.00;;;2.20;;
49175;SDS011;35012;47.200;9.748;2023-07-13T04:15:43;2.83;;;2.30;;
49175;SDS011;35012;47.200;9.748;2023-07-13T04:18:09;4.47;;;2.13;;
49175;SDS011;35012;47.200;9.748;2023-07-13T04:20:34;3.70;;;2.83;;
49175;SDS011;35012;47.200;9.748;2023-07-13T04:23:00;3.83;;;3.40;;
49175;SDS011;35012;47.200;9.748;2023-07-13T04:25:26;5.03;;;3.73;;
49175;SDS011;35012;47.200;9.748;2023-07-13T04:27:52;5.73;;;3.13;;
49175;SDS011;35012;47.200;9.748;2023-07-13T04:30:19;3.27;;;2.97;;
49175;SDS011;35012;47.200;9.748;2023-07-13T04:32:44;3.07;;;2.87;;
49175;SDS011;35012;47.200;9.748;2023-07-13T04:35:10;4.07;;;3.33;;
49175;SDS011;35012;47.200;9.748;2023-07-13T04:37:36;4.70;;;2.90;;
49175;SDS011;35012;47.200;9.748;2023-07-13T04:40:02;3.00;;;2.70;;
49175;SDS011;35012;47.200;9.748;2023-07-13T04:42:28;3.40;;;2.37;;
49175;SDS011;35012;47.200;9.748;2023-07-13T04:44:55;3.10;;;2.40;;
49175;SDS011;35012;47.200;9.748;2023-07-13T04:47:21;3.90;;;2.47;;
49175;SDS011;35012;47.200;9.748;2023-07-13T04:49:46;3.80;;;2.73;;
49175;SDS011;35012;47.200;9.748;2023-07-13T04:52:12;4.10;;;2.40;;
49175;SDS011;35012;47.200;9.748;2023-07-13T04:54:38;4.33;;;3.23;;
49175;SDS011;35012;47.200;9.748;2023-07-13T04:57:04;5.73;;;2.80;;
49175;SDS011;35012;47.200;9.748;2023-07-13T04:59:33;2.70;;;2.50;;
49175;SDS011;35012;47.200;9.748;2023-07-13T05:02:00;2.77;;;2.40;;
49175;SDS011;35012;47.200;9.748;2023-07-13T05:04:26;3.17;;;2.80;;
49175;SDS011;35012;47.200;9.748;2023-07-13T05:06:52;3.37;;;2.37;;
49175;SDS011;35012;47.200;9.748;2023-07-13T05:09:18;2.30;;;2.10;;
49175;SDS011;35012;47.200;9.748;2023-07-13T05:11:43;3.80;;;2.10;;
49175;SDS011;35012;47.200;9.748;2023-07-13T05:14:09;2.87;;;1.80;;
49175;SDS011;35012;47.200;9.748;2023-07-13T05:16:35;3.23;;;1.80;;
49175;SDS011;35012;47.200;9.748;2023-07-13T05:19:01;1.93;;;1.70;;
49175;SDS011;35012;47.200;9.748;2023-07-13T05:21:26;2.70;;;1.97;;
49175;SDS011;35012;47.200;9.748;2023-07-13T05:23:52;3.07;;;2.13;;
49175;SDS011;35012;47.200;9.748;2023-07-13T05:26:17;2.50;;;2.30;;
49175;SDS011;35012;47.200;9.748;2023-07-13T05:28:43;3.27;;;1.80;;
49175;SDS011;35012;47.200;9.748;2023-07-13T05:31:09;2.70;;;2.00;;
49175;SDS011;35012;47.200;9.748;2023-07-13T05:33:35;3.43;;;2.00;;
49175;SDS011;35012;47.200;9.748;2023-07-13T05:36:00;3.83;;;2.10;;
49175;SDS011;35012;47.200;9.748;2023-07-13T05:38:27;3.20;;;2.20;;
49175;SDS011;35012;47.200;9.748;2023-07-13T05:40:53;3.27;;;1.77;;
49175;SDS011;35012;47.200;9.748;2023-07-13T05:43:20;2.50;;;1.90;;
49175;SDS011;35012;47.200;9.748;2023-07-13T05:45:45;2.47;;;2.00;;
49175;SDS011;35012;47.200;9.748;2023-07-13T05:48:11;2.43;;;2.03;;
49175;SDS011;35012;47.200;9.748;2023-07-13T05:50:37;2.20;;;1.60;;
49175;SDS011;35012;47.200;9.748;2023-07-13T05:53:02;2.93;;;1.83;;
49175;SDS011;35012;47.200;9.748;2023-07-13T05:55:28;3.97;;;1.83;;
49175;SDS011;35012;47.200;9.748;2023-07-13T05:57:53;3.27;;;1.90;;
49175;SDS011;35012;47.200;9.748;2023-07-13T06:00:19;3.67;;;2.07;;
49175;SDS011;35012;47.200;9.748;2023-07-13T06:02:44;3.00;;;1.73;;
49175;SDS011;35012;47.200;9.748;2023-07-13T06:05:10;2.77;;;2.00;;
49175;SDS011;35012;47.200;9.748;2023-07-13T06:07:36;4.80;;;2.10;;
49175;SDS011;35012;47.200;9.748;2023-07-13T06:10:01;3.67;;;1.97;;
49175;SDS011;35012;47.200;9.748;2023-07-13T06:12:27;2.40;;;2.20;;
49175;SDS011;35012;47.200;9.748;2023-07-13T06:14:53;2.20;;;1.97;;
49175;SDS011;35012;47.200;9.748;2023-07-13T06:17:18;4.63;;;2.40;;
49175;SDS011;35012;47.200;9.748;2023-07-13T06:19:44;3.63;;;2.40;;
49175;SDS011;35012;47.200;9.748;2023-07-13T06:22:09;2.77;;;2.53;;
49175;SDS011;35012;47.200;9.748;2023-07-13T06:24:35;5.63;;;2.47;;
49175;SDS011;35012;47.200;9.748;2023-07-13T06:27:00;3.50;;;2.13;;
49175;SDS011;35012;47.200;9.748;2023-07-13T06:29:26;2.63;;;2.20;;
49175;SDS011;35012;47.200;9.748;2023-07-13T06:31:52;3.20;;;2.20;;
49175;SDS011;35012;47.200;9.748;2023-07-13T06:34:17;3.53;;;2.53;;
49175;SDS011;35012;47.200;9.748;2023-07-13T06:36:43;3.00;;;2.33;;
49175;SDS011;35012;47.200;9.748;2023-07-13T06:39:09;3.60;;;2.37;;
49175;SDS011;35012;47.200;9.748;2023-07-13T06:41:35;2.83;;;2.20;;
49175;SDS011;35012;47.200;9.748;2023-07-13T06:44:00;4.63;;;2.20;;
49175;SDS011;35012;47.200;9.748;2023-07-13T06:46:26;3.77;;;2.30;;
49175;SDS011;35012;47.200;9.748;2023-07-13T06:48:53;4.50;;;2.40;;
49175;SDS011;35012;47.200;9.748;2023-07-13T06:51:19;2.40;;;2.00;;
49175;SDS011;35012;47.200;9.748;2023-07-13T06:53:44;3.07;;;2.43;;
49175;SDS011;35012;47.200;9.748;2023-07-13T06:56:10;2.73;;;2.40;;
49175;SDS011;35012;47.200;9.748;2023-07-13T06:58:36;5.07;;;2.50;;
49175;SDS011;35012;47.200;9.748;2023-07-13T07:01:03;2.87;;;2.47;;
49175;SDS011;35012;47.200;9.748;2023-07-13T07:03:29;7.10;;;2.30;;
49175;SDS011;35012;47.200;9.748;2023-07-13T07:05:59;2.60;;;2.37;;
49175;SDS011;35012;47.200;9.748;2023-07-13T07:08:25;2.60;;;2.10;;
49175;SDS011;35012;47.200;9.748;2023-07-13T07:10:51;2.77;;;2.23;;
49175;SDS011;35012;47.200;9.748;2023-07-13T07:13:19;3.53;;;2.53;;
49175;SDS011;35012;47.200;9.748;2023-07-13T07:15:45;2.80;;;2.10;;
49175;SDS011;35012;47.200;9.748;2023-07-13T07:18:10;4.77;;;2.57;;
49175;SDS011;35012;47.200;9.748;2023-07-13T07:20:36;4.13;;;2.57;;
49175;SDS011;35012;47.200;9.748;2023-07-13T07:23:02;3.27;;;2.37;;
49175;SDS011;35012;47.200;9.748;2023-07-13T07:25:27;3.90;;;2.40;;
49175;SDS011;35012;47.200;9.748;2023-07-13T07:27:57;2.57;;;2.27;;
49175;SDS011;35012;47.200;9.748;2023-07-13T07:30:24;4.13;;;2.87;;
49175;SDS011;35012;47.200;9.748;2023-07-13T07:32:49;2.80;;;2.50;;
49175;SDS011;35012;47.200;9.748;2023-07-13T07:35:15;4.20;;;2.60;;
49175;SDS011;35012;47.200;9.748;2023-07-13T07:37:40;2.90;;;2.53;;
49175;SDS011;35012;47.200;9.748;2023-07-13T07:40:07;3.83;;;2.57;;
49175;SDS011;35012;47.200;9.748;2023-07-13T07:42:33;3.33;;;2.63;;
49175;SDS011;35012;47.200;9.748;2023-07-13T07:44:58;3.47;;;2.70;;
49175;SDS011;35012;47.200;9.748;2023-07-13T07:47:25;2.53;;;2.33;;
49175;SDS011;35012;47.200;9.748;2023-07-13T07:49:51;2.90;;;2.60;;
49175;SDS011;35012;47.200;9.748;2023-07-13T07:52:18;3.60;;;2.60;;
49175;SDS011;35012;47.200;9.748;2023-07-13T07:54:44;4.97;;;2.53;;
49175;SDS011;35012;47.200;9.748;2023-07-13T07:57:10;4.13;;;2.33;;
49175;SDS011;35012;47.200;9.748;2023-07-13T07:59:36;4.40;;;2.50;;
49175;SDS011;35012;47.200;9.748;2023-07-13T08:02:02;5.57;;;2.73;;
49175;SDS011;35012;47.200;9.748;2023-07-13T08:04:28;5.23;;;2.40;;
49175;SDS011;35012;47.200;9.748;2023-07-13T08:06:53;3.27;;;2.80;;
49175;SDS011;35012;47.200;9.748;2023-07-13T08:09:21;5.20;;;2.60;;
49175;SDS011;35012;47.200;9.748;2023-07-13T08:11:47;3.23;;;2.50;;
49175;SDS011;35012;47.200;9.748;2023-07-13T08:14:12;2.57;;;2.17;;
49175;SDS011;35012;47.200;9.748;2023-07-13T08:16:39;4.43;;;2.40;;
49175;SDS011;35012;47.200;9.748;2023-07-13T08:19:05;3.97;;;2.20;;
49175;SDS011;35012;47.200;9.748;2023-07-13T08:21:31;3.67;;;2.37;;
49175;SDS011;35012;47.200;9.748;2023-07-13T08:23:57;2.53;;;2.33;;
49175;SDS011;35012;47.200;9.748;2023-07-13T08:26:23;3.23;;;2.50;;
49175;SDS011;35012;47.200;9.748;2023-07-13T08:28:48;2.73;;;2.03;;
49175;SDS011;35012;47.200;9.748;2023-07-13T08:31:14;2.73;;;2.33;;
49175;SDS011;35012;47.200;9.748;2023-07-13T08:33:40;2.30;;;2.10;;
49175;SDS011;35012;47.200;9.748;2023-07-13T08:36:06;3.27;;;2.47;;
49175;SDS011;35012;47.200;9.748;2023-07-13T08:38:32;2.43;;;2.20;;
49175;SDS011;35012;47.200;9.748;2023-07-13T08:40:57;2.53;;;2.20;;
49175;SDS011;35012;47.200;9.748;2023-07-13T08:43:28;2.87;;;2.23;;
49175;SDS011;35012;47.200;9.748;2023-07-13T08:51:13;2.10;;;1.80;;
49175;SDS011;35012;47.200;9.748;2023-07-13T08:54:02;2.00;;;1.80;;
49175;SDS011;35012;47.200;9.748;2023-07-13T08:56:30;3.07;;;2.10;;
49175;SDS011;35012;47.200;9.748;2023-07-13T08:59:09;4.87;;;1.87;;
49175;SDS011;35012;47.200;9.748;2023-07-13T09:07:16;3.17;;;1.90;;
49175;SDS011;35012;47.200;9.748;2023-07-13T09:17:59;1.90;;;1.70;;
49175;SDS011;35012;47.200;9.748;2023-07-13T09:20:48;2.33;;;2.00;;
49175;SDS011;35012;47.200;9.748;2023-07-13T09:23:17;2.47;;;2.03;;
49175;SDS011;35012;47.200;9.748;2023-07-13T09:25:45;2.43;;;1.80;;
49175;SDS011;35012;47.200;9.748;2023-07-13T09:28:18;2.30;;;1.73;;
49175;SDS011;35012;47.200;9.748;2023-07-13T09:33:30;2.10;;;1.90;;
49175;SDS011;35012;47.200;9.748;2023-07-13T09:35:57;2.87;;;2.03;;
49175;SDS011;35012;47.200;9.748;2023-07-13T09:38:24;2.90;;;2.10;;
49175;SDS011;35012;47.200;9.748;2023-07-13T09:46:42;2.57;;;1.97;;
49175;SDS011;35012;47.200;9.748;2023-07-13T09:49:10;2.57;;;1.70;;
49175;SDS011;35012;47.200;9.748;2023-07-13T09:51:37;2.13;;;1.67;;
49175;SDS011;35012;47.200;9.748;2023-07-13T09:54:04;2.97;;;1.90;;
49175;SDS011;35012;47.200;9.748;2023-07-13T09:56:29;3.53;;;2.00;;
49175;SDS011;35012;47.200;9.748;2023-07-13T09:58:56;4.00;;;1.90;;
49175;SDS011;35012;47.200;9.748;2023-07-13T10:01:35;2.10;;;1.90;;
49175;SDS011;35012;47.200;9.748;2023-07-13T10:04:09;4.30;;;2.20;;
49175;SDS011;35012;47.200;9.748;2023-07-13T10:06:38;3.13;;;2.10;;
49175;SDS011;35012;47.200;9.748;2023-07-13T10:09:07;3.07;;;1.93;;
49175;SDS011;35012;47.200;9.748;2023-07-13T10:11:34;2.20;;;2.00;;
49175;SDS011;35012;47.200;9.748;2023-07-13T10:14:01;1.90;;;1.60;;
49175;SDS011;35012;47.200;9.748;2023-07-13T10:16:35;2.00;;;1.80;;
49175;SDS011;35012;47.200;9.748;2023-07-13T10:19:02;2.33;;;1.80;;
49175;SDS011;35012;47.200;9.748;2023-07-13T10:21:39;2.37;;;1.90;;
49175;SDS011;35012;47.200;9.748;2023-07-13T10:24:15;2.73;;;1.70;;
49175;SDS011;35012;47.200;9.748;2023-07-13T10:26:47;2.23;;;2.00;;
49175;SDS011;35012;47.200;9.748;2023-07-13T10:29:17;3.23;;;1.87;;
49175;SDS011;35012;47.200;9.748;2023-07-13T10:31:44;2.43;;;1.83;;
49175;SDS011;35012;47.200;9.748;2023-07-13T10:34:10;2.60;;;1.67;;
49175;SDS011;35012;47.200;9.748;2023-07-13T10:36:40;1.90;;;1.77;;
49175;SDS011;35012;47.200;9.748;2023-07-13T10:39:22;1.93;;;1.73;;
49175;SDS011;35012;47.200;9.748;2023-07-13T10:41:52;2.50;;;2.00;;
49175;SDS011;35012;47.200;9.748;2023-07-13T10:44:24;3.30;;;1.97;;
49175;SDS011;35012;47.200;9.748;2023-07-13T10:46:54;3.10;;;1.63;;
49175;SDS011;35012;47.200;9.748;2023-07-13T10:49:22;2.47;;;1.90;;
49175;SDS011;35012;47.200;9.748;2023-07-13T10:51:48;4.07;;;1.80;;
49175;SDS011;35012;47.200;9.748;2023-07-13T10:54:15;2.70;;;1.87;;
49175;SDS011;35012;47.200;9.748;2023-07-13T10:56:48;2.03;;;1.77;;
49175;SDS011;35012;47.200;9.748;2023-07-13T10:59:33;2.77;;;2.10;;
49175;SDS011;35012;47.200;9.748;2023-07-13T11:04:29;2.97;;;2.00;;
49175;SDS011;35012;47.200;9.748;2023-07-13T11:07:09;2.40;;;1.90;;
49175;SDS011;35012;47.200;9.748;2023-07-13T11:09:45;3.23;;;1.80;;
49175;SDS011;35012;47.200;9.748;2023-07-13T11:14:44;4.10;;;2.00;;
49175;SDS011;35012;47.200;9.748;2023-07-13T11:23:06;3.20;;;1.83;;
49175;SDS011;35012;47.200;9.748;2023-07-13T11:25:38;4.87;;;2.10;;
49175;SDS011;35012;47.200;9.748;2023-07-13T11:28:05;3.07;;;2.37;;
49175;SDS011;35012;47.200;9.748;2023-07-13T11:30:46;3.03;;;2.10;;
49175;SDS011;35012;47.200;9.748;2023-07-13T11:33:22;4.17;;;1.90;;
49175;SDS011;35012;47.200;9.748;2023-07-13T11:35:50;3.07;;;2.27;;
49175;SDS011;35012;47.200;9.748;2023-07-13T11:38:48;2.10;;;1.80;;
49175;SDS011;35012;47.200;9.748;2023-07-13T11:41:21;1.70;;;1.60;;
49175;SDS011;35012;47.200;9.748;2023-07-13T11:43:49;2.23;;;1.83;;
49175;SDS011;35012;47.200;9.748;2023-07-13T11:46:18;2.37;;;1.80;;
49175;SDS011;35012;47.200;9.748;2023-07-13T11:48:47;3.80;;;1.77;;
49175;SDS011;35012;47.200;9.748;2023-07-13T11:51:30;2.40;;;1.70;;
49175;SDS011;35012;47.200;9.748;2023-07-13T11:53:57;2.33;;;1.73;;
49175;SDS011;35012;47.200;9.748;2023-07-13T11:56:28;3.00;;;1.60;;
49175;SDS011;35012;47.200;9.748;2023-07-13T11:58:55;3.33;;;1.57;;
49175;SDS011;35012;47.200;9.748;2023-07-13T12:01:22;4.87;;;1.87;;
49175;SDS011;35012;47.200;9.748;2023-07-13T12:03:51;2.20;;;1.80;;
49175;SDS011;35012;47.200;9.748;2023-07-13T12:09:00;2.00;;;1.80;;
49175;SDS011;35012;47.200;9.748;2023-07-13T12:11:28;3.10;;;1.83;;
49175;SDS011;35012;47.200;9.748;2023-07-13T12:13:54;2.30;;;1.60;;
49175;SDS011;35012;47.200;9.748;2023-07-13T12:16:28;2.53;;;1.90;;
49175;SDS011;35012;47.200;9.748;2023-07-13T12:18:55;3.40;;;2.10;;
49175;SDS011;35012;47.200;9.748;2023-07-13T12:21:23;2.05;;;1.55;;
49175;SDS011;35012;47.200;9.748;2023-07-13T12:23:55;3.85;;;1.75;;
49175;SDS011;35012;47.200;9.748;2023-07-13T12:26:20;2.88;;;1.55;;
49175;SDS011;35012;47.200;9.748;2023-07-13T12:28:48;3.58;;;1.83;;
49175;SDS011;35012;47.200;9.748;2023-07-13T12:31:33;1.95;;;1.60;;
49175;SDS011;35012;47.200;9.748;2023-07-13T12:34:07;2.55;;;1.63;;
49175;SDS011;35012;47.200;9.748;2023-07-13T12:36:36;3.22;;;2.00;;
49175;SDS011;35012;47.200;9.748;2023-07-13T12:39:04;2.30;;;1.80;;
49175;SDS011;35012;47.200;9.748;2023-07-13T12:41:37;5.10;;;1.90;;
49175;SDS011;35012;47.200;9.748;2023-07-13T12:44:04;3.22;;;1.80;;
49175;SDS011;35012;47.200;9.748;2023-07-13T12:46:33;3.93;;;1.90;;
49175;SDS011;35012;47.200;9.748;2023-07-13T12:48:58;2.95;;;1.83;;
49175;SDS011;35012;47.200;9.748;2023-07-13T12:51:25;2.00;;;1.73;;
49175;SDS011;35012;47.200;9.748;2023-07-13T12:54:15;1.77;;;1.60;;
49175;SDS011;35012;47.200;9.748;2023-07-13T12:56:41;4.00;;;1.83;;
49175;SDS011;35012;47.200;9.748;2023-07-13T12:59:08;2.60;;;1.60;;
49175;SDS011;35012;47.200;9.748;2023-07-13T13:01:43;2.57;;;1.70;;
49175;SDS011;35012;47.200;9.748;2023-07-13T13:04:09;2.90;;;1.47;;
49175;SDS011;35012;47.200;9.748;2023-07-13T13:06:36;2.90;;;1.70;;
49175;SDS011;35012;47.200;9.748;2023-07-13T13:09:03;2.97;;;1.50;;
49175;SDS011;35012;47.200;9.748;2023-07-13T13:11:29;1.70;;;1.50;;
49175;SDS011;35012;47.200;9.748;2023-07-13T13:13:56;1.60;;;1.50;;
49175;SDS011;35012;47.200;9.748;2023-07-13T13:16:23;1.57;;;1.33;;
49175;SDS011;35012;47.200;9.748;2023-07-13T13:18:52;1.93;;;1.30;;
49175;SDS011;35012;47.200;9.748;2023-07-13T13:21:19;1.60;;;1.37;;
49175;SDS011;35012;47.200;9.748;2023-07-13T13:23:45;2.17;;;1.60;;
49175;SDS011;35012;47.200;9.748;2023-07-13T13:26:15;1.70;;;1.20;;
49175;SDS011;35012;47.200;9.748;2023-07-13T13:28:41;1.40;;;1.30;;
49175;SDS011;35012;47.200;9.748;2023-07-13T13:31:09;1.42;;;1.33;;
49175;SDS011;35012;47.200;9.748;2023-07-13T13:33:42;1.50;;;1.30;;
49175;SDS011;35012;47.200;9.748;2023-07-13T13:36:17;4.63;;;1.55;;
49175;SDS011;35012;47.200;9.748;2023-07-13T13:38:44;3.25;;;1.27;;
49175;SDS011;35012;47.200;9.748;2023-07-13T13:41:10;2.45;;;1.67;;
49175;SDS011;35012;47.200;9.748;2023-07-13T13:43:38;2.70;;;1.63;;
49175;SDS011;35012;47.200;9.748;2023-07-13T13:46:09;3.33;;;2.70;;
49175;SDS011;35012;47.200;9.748;2023-07-13T13:48:47;2.88;;;1.65;;
49175;SDS011;35012;47.200;9.748;2023-07-13T13:51:17;3.60;;;1.30;;
49175;SDS011;35012;47.200;9.748;2023-07-13T13:53:44;2.20;;;1.40;;
49175;SDS011;35012;47.200;9.748;2023-07-13T13:56:10;2.20;;;1.40;;
49175;SDS011;35012;47.200;9.748;2023-07-13T13:58:37;2.75;;;1.45;;
49175;SDS011;35012;47.200;9.748;2023-07-13T14:01:02;2.33;;;1.23;;
49175;SDS011;35012;47.200;9.748;2023-07-13T14:03:28;2.97;;;1.50;;
49175;SDS011;35012;47.200;9.748;2023-07-13T14:05:54;2.65;;;1.40;;
49175;SDS011;35012;47.200;9.748;2023-07-13T14:08:22;4.88;;;4.47;;
49175;SDS011;35012;47.200;9.748;2023-07-13T14:10:48;6.53;;;3.25;;
49175;SDS011;35012;47.200;9.748;2023-07-13T14:13:17;1.83;;;1.35;;
49175;SDS011;35012;47.200;9.748;2023-07-13T14:15:45;1.70;;;1.25;;
49175;SDS011;35012;47.200;9.748;2023-07-13T14:18:11;2.05;;;1.38;;
49175;SDS011;35012;47.200;9.748;2023-07-13T14:20:37;1.45;;;1.25;;
49175;SDS011;35012;47.200;9.748;2023-07-13T14:23:02;2.67;;;1.30;;
49175;SDS011;35012;47.200;9.748;2023-07-13T14:25:28;1.65;;;1.27;;
49175;SDS011;35012;47.200;9.748;2023-07-13T14:27:55;1.60;;;1.05;;
49175;SDS011;35012;47.200;9.748;2023-07-13T14:30:24;2.25;;;1.30;;
49175;SDS011;35012;47.200;9.748;2023-07-13T14:32:50;2.22;;;1.10;;
49175;SDS011;35012;47.200;9.748;2023-07-13T14:35:17;1.10;;;0.95;;
49175;SDS011;35012;47.200;9.748;2023-07-13T14:37:48;2.38;;;1.73;;
49175;SDS011;35012;47.200;9.748;2023-07-13T14:40:15;3.58;;;1.30;;
49175;SDS011;35012;47.200;9.748;2023-07-13T14:42:42;2.20;;;1.30;;
49175;SDS011;35012;47.200;9.748;2023-07-13T14:45:15;1.40;;;1.30;;
49175;SDS011;35012;47.200;9.748;2023-07-13T14:47:41;3.35;;;1.30;;
49175;SDS011;35012;47.200;9.748;2023-07-13T14:50:18;1.25;;;1.15;;
49175;SDS011;35012;47.200;9.748;2023-07-13T14:52:50;2.70;;;1.75;;
49175;SDS011;35012;47.200;9.748;2023-07-13T14:55:16;2.40;;;1.30;;
49175;SDS011;35012;47.200;9.748;2023-07-13T14:57:43;1.42;;;1.30;;
49175;SDS011;35012;47.200;9.748;2023-07-13T15:00:19;1.40;;;1.30;;
49175;SDS011;35012;47.200;9.748;2023-07-13T15:02:50;1.92;;;1.45;;
49175;SDS011;35012;47.200;9.748;2023-07-13T15:05:23;1.25;;;1.15;;
49175;SDS011;35012;47.200;9.748;2023-07-13T15:07:51;1.77;;;1.40;;
49175;SDS011;35012;47.200;9.748;2023-07-13T15:10:19;1.73;;;1.30;;
49175;SDS011;35012;47.200;9.748;2023-07-13T15:12:47;3.30;;;1.63;;
49175;SDS011;35012;47.200;9.748;2023-07-13T15:15:13;1.70;;;1.60;;
49175;SDS011;35012;47.200;9.748;2023-07-13T15:17:42;2.57;;;1.50;;
49175;SDS011;35012;47.200;9.748;2023-07-13T15:22:43;3.40;;;2.50;;
49175;SDS011;35012;47.200;9.748;2023-07-13T15:25:28;2.33;;;1.90;;
49175;SDS011;35012;47.200;9.748;2023-07-13T15:27:58;1.70;;;1.47;;
49175;SDS011;35012;47.200;9.748;2023-07-13T15:30:31;2.43;;;1.70;;
49175;SDS011;35012;47.200;9.748;2023-07-13T15:33:23;3.27;;;1.80;;
49175;SDS011;35012;47.200;9.748;2023-07-13T15:35:53;2.37;;;1.70;;
49175;SDS011;35012;47.200;9.748;2023-07-13T15:38:22;2.60;;;1.40;;